Wudaoliang, China
Current Conditions -  °F | °C
As of 8:00 PM on Friday 31 Oct 2014 (Local Time) from ZLLL Reporting Station
Scattered Clouds Scattered Clouds  
Wind Chill: 29°   Ceiling: Unl
Heat Index: 36°   Visibility: 6mi
Dew Point: 16°   Wind: 9mph
Humidity: 44%   Direction: 60°ENE
Pressure: 30.33"   Gusts: NA
Location:  35.22°N, 93.08°E
Report Text: ZLLL 311200Z 06004MPS 9999 SCT046 02/M09 Q1027 NOSIG
Loading
Personal Weather Stations






























Interactive Weather Map
Tropical Storm Tracking
New forecast layout! Learn more

10-Day Weather Forecast

Advertisements
Track Severe Weather on mobile